Latest Weather Observations for Moorabbin Airport

IDV60901

Issued at 12:35 pm EDT Saturday 1 November 2014 (issued every 10 minutes, with the page automatically refreshed every 10 minutes)

About weather observations | Map of Melbourne area stations | Latest observations for Melbourne area | Other Formats
Station Details ID: 086077 Name: MOORABBIN AIRPORT Lat: -37.98 Lon: 145.10 Height: 12.1 m
Data from the previous 72 hours. | See also: Recent months at Moorabbin Airport
Date/Time
EDT
Tmp

°C
App
Tmp
°C
Dew
Point
°C
Rel
Hum
%
Delta-T

°C
Wind Press
QNH
hPa
Press
MSL
hPa
Rain
since
9 am
mm
Dir
 
Spd
km/h
Gust
km/h
Spd
kts
Gust
kts
01/12:30pm 13.1 6.4 7.3 68 2.8 W 32 44 17 24 1006.6 1006.6 0.4
01/12:00pm 14.5 9.1 8.2 66 3.2 W 26 44 14 24 1006.0 1006.0 0.4
01/11:50am 14.1 8.9 10.1 77 2.1 WSW 28 41 15 22 1006.1 1006.1 0.4
01/11:37am 12.9 6.0 9.0 77 2.0 W 35 54 19 29 1005.9 1005.9 0.2
01/11:30am 14.0 7.5 9.0 72 2.5 W 33 54 18 29 1005.8 1005.8 0.2
01/11:16am 16.0 10.0 7.0 55 4.4 W 28 46 15 25 1005.3 1005.3 0.0
01/11:00am 15.2 10.1 7.5 60 3.8 W 24 37 13 20 1005.3 1005.3 0.0
01/10:30am 14.4 9.2 7.2 62 3.5 WSW 24 33 13 18 1005.1 1005.1 0.0
01/10:00am 13.9 7.6 7.4 65 3.2 W 30 44 16 24 1004.7 1004.7 0.0
01/09:36am 14.2 8.7 9.2 72 2.5 WSW 28 46 15 25 1004.4 1004.4 0.0
01/09:30am 13.8 8.0 9.5 75 2.2 WSW 30 44 16 24 1004.3 1004.3 0.0
01/09:07am 13.7 8.6 10.5 81 1.7 W 28 46 15 25 1003.9 1003.9 0.0
01/09:00am 13.8 9.2 11.1 84 1.4 W 26 39 14 21 1003.7 1003.7 6.2
01/08:30am 14.0 9.7 10.8 81 1.7 W 24 35 13 19 1003.1 1003.1 6.2
01/08:00am 13.8 10.3 10.8 82 1.6 W 20 32 11 17 1002.3 1002.3 6.2
01/07:57am 13.8 9.9 10.8 82 1.6 W 22 33 12 18 1002.2 1002.2 6.2
01/07:30am 14.0 11.2 12.6 91 0.8 W 19 32 10 17 1001.6 1001.6 6.2
01/07:06am 13.9 11.5 12.8 93 0.6 W 17 26 9 14 1001.2 1001.2 6.0
01/07:02am 13.8 11.4 12.7 93 0.6 W 17 32 9 17 1001.1 1001.1 6.0
01/07:00am 13.8 11.0 12.7 93 0.6 W 19 32 10 17 1001.0 1001.0 6.0
01/06:53am 13.8 11.0 12.7 93 0.6 WNW 19 32 10 17 1001.2 1001.2 5.8
01/06:30am 13.9 11.6 13.1 95 0.4 WNW 17 24 9 13 1001.5 1001.5 4.6
01/06:18am 14.0 12.1 13.1 94 0.5 W 15 22 8 12 1000.8 1000.8 3.4
01/06:08am 14.1 11.4 12.8 92 0.7 W 19 30 10 16 1000.9 1000.9 2.6
01/06:00am 14.3 11.9 12.7 90 0.9 W 17 24 9 13 1000.8 1000.8 2.0
01/05:30am 14.9 13.5 12.2 84 1.5 W 11 15 6 8 999.3 999.3 0.8
01/05:00am 16.2 14.2 11.4 73 2.6 WNW 13 19 7 10 999.7 999.7 0.0
01/04:30am 16.4 15.3 10.7 69 3.0 WNW 7 11 4 6 999.1 999.1 0.0
01/04:00am 16.5 15.6 11.2 71 2.9 NNW 7 11 4 6 1000.0 1000.0 0.0
01/03:30am 16.5 14.9 11.4 72 2.8 WNW 11 17 6 9 1000.0 1000.0 0.0
01/03:17am 16.4 14.5 11.8 74 2.5 SW 13 20 7 11 1000.6 1000.6 0.0
01/03:10am 16.3 15.6 11.9 75 2.4 SW 7 17 4 9 998.6 998.6 0.0
01/03:00am 16.8 15.3 11.9 73 2.7 W 11 19 6 10 1000.6 1000.6 0.0
01/02:30am 17.0 14.5 12.3 74 2.6 W 17 28 9 15 1000.9 1000.9 0.0
01/02:12am 17.1 14.2 12.4 74 2.6 W 19 28 10 15 1000.3 1000.3 0.0
01/02:00am 17.1 13.5 12.0 72 2.8 W 22 37 12 20 1000.1 1000.1 0.0
01/01:43am 17.2 13.4 12.5 74 2.6 WSW 24 37 13 20 999.8 999.8 0.0
01/01:30am 17.1 16.0 13.2 78 2.2 WSW 11 17 6 9 999.9 999.9 0.0
01/01:00am 17.2 16.5 13.1 77 2.3 SW 9 15 5 8 999.9 999.9 0.0
01/12:30am 17.3 14.9 12.8 75 2.5 SSW 17 26 9 14 998.8 998.8 0.0
01/12:00am 17.7 13.6 12.8 73 2.8 SW 26 39 14 21 999.3 999.3 0.0
 
Date/Time
EDT
Tmp

°C
App
Tmp
°C
Dew
Point
°C
Rel
Hum
%
Delta-T

°C
Wind Press
QNH
hPa
Press
MSL
hPa
Rain
since
9 am
mm
Dir
 
Spd
km/h
Gust
km/h
Spd
kts
Gust
kts
31/11:30pm 19.7 13.9 10.7 56 4.9 SW 32 56 17 30 998.0 998.0 0.0
31/11:25pm 22.4 17.1 9.9 45 6.8 WSW 28 56 15 30 997.9 997.9 0.0
31/11:00pm 27.0 22.6 4.7 24 11.4 N 17 24 9 13 996.0 996.0 0.0
31/10:30pm 27.0 22.3 5.3 25 11.1 N 19 24 10 13 996.1 996.1 0.0
31/10:00pm 26.5 21.8 6.0 27 10.7 N 20 22 11 12 996.6 996.6 0.0
31/09:30pm 26.4 22.3 6.4 28 10.4 N 17 22 9 12 996.7 996.7 0.0
31/09:00pm 27.0 22.6 6.4 27 10.9 N 19 22 10 12 997.0 997.0 0.0
31/08:30pm 26.5 23.0 7.0 29 10.3 N 15 17 8 9 997.3 997.3 0.0
31/08:00pm 27.8 24.0 6.0 25 11.5 NNE 15 19 8 10 997.5 997.5 0.0
31/07:30pm 28.4 24.2 5.9 24 11.8 N 17 20 9 11 997.9 997.9 0.0
31/07:00pm 30.0 25.7 5.3 21 13.0 N 17 22 9 12 998.3 998.3 0.0
31/06:30pm 31.1 25.1 3.2 17 14.2 N 24 33 13 18 998.8 998.8 0.0
31/06:00pm 31.4 23.9 3.4 17 14.4 NNW 32 41 17 22 999.3 999.3 0.0
31/05:30pm 32.2 24.8 4.1 17 14.6 NNW 32 43 17 23 999.7 999.7 0.0
31/05:00pm 32.0 24.0 3.9 17 14.6 NNW 35 57 19 31 999.9 999.9 0.0
31/04:30pm 32.1 25.0 5.6 19 14.1 NNW 32 50 17 27 1000.3 1000.3 0.0
31/04:00pm 31.5 23.7 5.1 19 13.9 N 35 63 19 34 1000.6 1000.6 0.0
31/03:38pm 31.4 24.0 4.2 18 14.1 NNW 32 56 17 30 1001.2 1001.2 0.0
31/03:30pm 30.8 23.1 5.3 20 13.4 N 35 48 19 26 1001.3 1001.3 0.0
31/03:01pm 30.3 22.6 6.9 23 12.6 N 37 56 20 30 1002.0 1002.0 0.0
31/03:00pm 30.3 22.0 6.2 22 12.9 N 39 56 21 30 1002.0 1002.0 0.0
31/02:34pm 30.2 22.5 5.5 21 13.0 N 35 57 19 31 1002.4 1002.4 0.0
31/02:30pm 30.0 22.1 4.6 20 13.1 N 35 50 19 27 1002.6 1002.6 0.0
31/02:00pm 29.4 22.0 4.1 20 13.0 N 32 46 17 25 1003.3 1003.3 0.0
31/01:31pm 28.9 21.7 5.7 23 12.1 N 33 52 18 28 1003.9 1003.9 0.0
31/01:30pm 29.3 21.9 6.7 24 12.1 N 35 52 19 28 1003.9 1003.9 0.0
31/01:00pm 27.8 19.9 4.2 22 12.0 N 35 48 19 26 1004.5 1004.5 0.0
31/12:30pm 27.9 20.7 6.1 25 11.4 N 33 48 18 26 1005.2 1005.2 0.0
31/12:00pm 24.8 19.7 9.1 37 8.5 N 26 35 14 19 1006.2 1006.2 0.0
31/11:30am 24.4 20.8 10.7 42 7.6 N 20 30 11 16 1007.1 1007.1 0.0
31/11:00am 22.4 18.9 10.9 48 6.4 N 20 26 11 14 1007.8 1007.8 0.0
31/10:30am 20.8 17.9 10.9 53 5.4 N 17 20 9 11 1008.2 1008.2 0.0
31/10:00am 18.5 17.2 11.1 62 4.0 N 9 13 5 7 1008.7 1008.7 0.0
31/09:30am 16.9 15.4 10.7 67 3.3 N 9 11 5 6 1009.1 1009.1 0.0
31/09:00am 15.2 13.3 10.6 74 2.4 N 11 15 6 8 1009.4 1009.4 0.0
31/08:30am 13.9 12.7 10.3 79 1.9 N 7 11 4 6 1009.8 1009.8 0.0
31/08:00am 13.2 11.3 10.4 83 1.5 N 11 13 6 7 1009.9 1009.9 0.0
31/07:30am 12.1 10.4 10.0 87 1.1 N 9 11 5 6 1010.2 1010.2 0.0
31/07:00am 10.6 8.9 9.7 94 0.5 N 9 11 5 6 1010.5 1010.5 0.0
31/06:30am 9.7 8.2 8.6 93 0.5 N 6 9 3 5 1010.6 1010.6 0.0
31/06:00am 9.2 7.5 7.6 90 0.8 N 6 9 3 5 1010.6 1010.6 0.0
31/05:30am 9.2 8.0 8.1 93 0.5 NW 4 6 2 3 1010.4 1010.4 0.0
31/05:00am 8.7 6.4 7.3 91 0.7 NNE 9 11 5 6 1010.5 1010.5 0.0
31/04:30am 9.2 8.8 8.3 94 0.4 CALM 0 0 0 0 1011.0 1011.0 0.0
31/04:00am 9.5 9.2 8.7 95 0.4 CALM 0 0 0 0 1010.9 1010.9 0.0
31/03:30am 9.4 9.0 8.2 92 0.6 CALM 0 0 0 0 1011.4 1011.4 0.0
31/03:00am 10.3 9.0 9.1 92 0.6 N 6 6 3 3 1011.7 1011.7 0.0
31/02:30am 9.9 9.6 8.5 91 0.7 CALM 0 0 0 0 1012.0 1012.0 0.0
31/02:00am 10.5 9.9 8.8 89 0.8 N 2 4 1 2 1012.5 1012.5 0.0
31/01:30am 11.1 11.0 9.4 89 0.9 CALM 0 0 0 0 1013.1 1013.1 0.0
31/01:00am 10.8 10.3 9.2 90 0.8 SE 2 6 1 3 1013.8 1013.8 0.0
31/12:30am 10.9 9.5 9.0 88 0.9 SE 6 7 3 4 1013.8 1013.8 0.0
31/12:00am 11.3 9.8 9.2 87 1.0 SE 7 9 4 5 1013.9 1013.9 0.0
 
Date/Time
EDT
Tmp

°C
App
Tmp
°C
Dew
Point
°C
Rel
Hum
%
Delta-T

°C
Wind Press
QNH
hPa
Press
MSL
hPa
Rain
since
9 am
mm
Dir
 
Spd
km/h
Gust
km/h
Spd
kts
Gust
kts
30/11:30pm 11.7 9.9 9.3 85 1.2 SE 9 11 5 6 1013.9 1013.9 0.0
30/11:00pm 12.0 10.2 9.4 84 1.3 SSE 9 13 5 7 1014.1 1014.1 0.0
30/10:30pm 12.4 9.8 9.4 82 1.5 SE 13 17 7 9 1014.1 1014.1 0.0
30/10:00pm 13.0 10.1 9.6 80 1.7 SE 15 17 8 9 1014.0 1014.0 0.0
30/09:30pm 13.1 10.2 9.7 80 1.7 SE 15 17 8 9 1013.7 1013.7 0.0
30/09:00pm 13.7 10.9 9.9 78 2.0 SE 15 20 8 11 1013.7 1013.7 0.0
30/08:30pm 14.2 10.5 9.6 74 2.4 SE 19 24 10 13 1013.5 1013.5 0.0
30/08:00pm 15.0 11.0 9.1 68 3.0 SE 20 26 11 14 1013.2 1013.2 0.0
30/07:30pm 16.5 14.4 9.9 65 3.5 S 11 20 6 11 1012.8 1012.8 0.0
30/07:00pm 17.4 15.0 10.1 62 3.9 SSW 13 17 7 9 1012.9 1012.9 0.0
30/06:30pm 17.9 14.5 9.3 57 4.5 S 17 20 9 11 1012.6 1012.6 0.0
30/06:00pm 18.6 15.3 9.4 55 4.8 S 17 22 9 12 1012.8 1012.8 0.0
30/05:30pm 18.6 14.7 8.8 53 5.1 S 19 24 10 13 1012.8 1012.8 0.0
30/05:00pm 18.6 14.7 9.4 55 4.8 SSW 20 26 11 14 1012.9 1012.9 0.0
30/04:30pm 18.4 14.3 8.7 53 5.0 S 20 26 11 14 1012.8 1012.8 0.0
30/04:00pm 18.0 13.9 8.8 55 4.8 S 20 28 11 15 1013.0 1013.0 0.0
30/03:30pm 18.2 14.5 9.5 57 4.6 SSW 19 22 10 12 1013.0 1013.0 0.0
30/03:00pm 18.7 15.3 9.2 54 5.0 SSW 17 24 9 13 1013.3 1013.3 0.0
30/02:30pm 18.1 14.9 8.4 53 5.0 SSW 15 22 8 12 1013.6 1013.6 0.0
30/02:00pm 18.0 14.3 8.0 52 5.1 SSW 17 24 9 13 1013.9 1013.9 0.0
30/01:30pm 18.0 14.0 8.3 53 5.0 SW 19 24 10 13 1014.3 1014.3 0.0
30/01:00pm 17.2 13.0 8.4 56 4.5 SW 20 26 11 14 1014.7 1014.7 0.0
30/12:30pm 17.2 14.0 8.6 57 4.4 SSW 15 26 8 14 1014.8 1014.8 0.0
30/12:00pm 16.7 13.6 8.7 59 4.1 SW 15 24 8 13 1015.0 1015.0 0.0
30/11:30am 16.0 12.2 9.0 63 3.6 SSW 19 24 10 13 1015.4 1015.4 0.0
30/11:00am 15.6 11.6 8.1 61 3.8 WSW 19 28 10 15 1015.7 1015.7 0.0
30/10:30am 15.1 11.1 9.0 67 3.1 SW 20 30 11 16 1016.1 1016.1 0.0
30/10:00am 14.9 11.1 9.7 71 2.7 WSW 20 28 11 15 1015.9 1015.9 0.0
30/09:30am 14.8 11.2 9.8 72 2.6 W 19 26 10 14 1015.8 1015.8 0.0
30/09:00am 14.7 11.4 9.5 71 2.7 WNW 17 24 9 13 1015.8 1015.8 0.0
30/08:30am 14.3 11.0 9.5 73 2.5 W 17 26 9 14 1015.6 1015.6 0.0
30/08:25am 14.3 11.0 9.5 73 2.5 W 17 26 9 14 1015.5 1015.5 0.0
30/08:00am 14.4 10.7 9.6 73 2.5 WSW 19 24 10 13 1015.8 1015.8 0.0
30/07:30am 14.5 11.8 8.9 69 2.8 W 13 20 7 11 1015.0 1015.0 0.0
30/07:06am 14.4 11.3 8.8 69 2.8 W 15 20 8 11 1014.9 1014.9 0.0
30/07:00am 14.4 12.0 8.8 69 2.8 W 11 17 6 9 1014.9 1014.9 0.0
30/06:30am 14.3 12.3 8.7 69 2.8 WNW 9 13 5 7 1014.4 1014.4 0.0
30/06:00am 14.2 12.5 9.8 75 2.3 WNW 9 15 5 8 1014.2 1014.2 0.0
30/05:30am 14.2 12.6 10.2 77 2.1 W 9 11 5 6 1014.6 1014.6 0.0
30/05:00am 14.0 13.1 10.6 80 1.8 WNW 6 9 3 5 1014.5 1014.5 0.0
30/04:30am 13.8 12.9 10.6 81 1.7 NNW 6 7 3 4 1014.3 1014.3 0.0
30/04:00am 13.8 12.3 10.6 81 1.7 N 9 11 5 6 1014.2 1014.2 0.0
30/03:30am 13.7 12.6 10.7 82 1.6 NNW 7 11 4 6 1014.4 1014.4 0.0
30/03:00am 13.8 12.3 10.6 81 1.7 NNW 9 11 5 6 1014.6 1014.6 0.0
30/02:30am 13.7 12.8 10.7 82 1.6 NNW 6 7 3 4 1014.9 1014.9 0.0
30/02:00am 13.3 12.2 10.7 84 1.4 N 7 9 4 5 1015.2 1015.2 0.0
30/01:30am 13.1 12.2 10.5 84 1.4 N 6 7 3 4 1015.7 1015.7 0.0
30/01:00am 12.5 11.5 10.2 86 1.2 NNW 6 7 3 4 1016.0 1016.0 0.0
30/12:30am 12.1 11.0 9.8 86 1.2 NW 6 7 3 4 1016.3 1016.3 0.0
30/12:00am 12.1 12.1 9.7 85 1.2 CALM 0 0 0 0 1016.2 1016.2 0.0
 
Date/Time
EDT
Tmp

°C
App
Tmp
°C
Dew
Point
°C
Rel
Hum
%
Delta-T

°C
Wind Press
QNH
hPa
Press
MSL
hPa
Rain
since
9 am
mm
Dir
 
Spd
km/h
Gust
km/h
Spd
kts
Gust
kts
29/11:30pm 12.4 11.1 9.8 84 1.3 E 7 9 4 5 1016.2 1016.2 0.0
29/11:00pm 12.2 10.8 9.6 84 1.3 E 7 7 4 4 1016.4 1016.4 0.0
29/10:30pm 12.1 9.8 9.1 82 1.5 ESE 11 13 6 7 1016.3 1016.3 0.0
29/10:00pm 13.0 10.5 9.8 81 1.6 SE 13 15 7 8 1016.5 1016.5 0.0
29/09:30pm 13.1 10.2 9.5 79 1.8 SE 15 19 8 10 1016.3 1016.3 0.0
29/09:00pm 13.7 10.8 9.7 77 2.1 SE 15 17 8 9 1016.0 1016.0 0.0
29/08:30pm 15.5 12.6 9.8 69 3.0 SSE 15 20 8 11 1015.7 1015.7 0.0
29/08:00pm 16.0 13.0 10.5 70 2.9 S 17 20 9 11 1015.3 1015.3 0.0
29/07:30pm 16.7 13.0 9.6 63 3.7 SSW 19 28 10 15 1014.8 1014.8 0.0
29/07:00pm 16.9 12.4 10.1 64 3.6 SSW 24 32 13 17 1014.5 1014.5 0.0
29/06:30pm 17.3 12.3 9.5 60 4.1 SSW 26 35 14 19 1014.5 1014.5 0.0
29/06:00pm 18.2 13.8 9.0 55 4.8 S 22 30 12 16 1014.3 1014.3 0.0
29/05:30pm 19.3 15.2 7.7 47 5.9 SSW 19 24 10 13 1014.3 1014.3 0.0
29/05:00pm 19.6 15.6 8.3 48 5.9 SSW 19 24 10 13 1014.4 1014.4 0.0
29/04:30pm 19.2 15.9 7.9 48 5.8 SW 15 20 8 11 1014.5 1014.5 0.0
29/04:00pm 18.9 15.4 8.8 52 5.3 SSW 17 20 9 11 1014.8 1014.8 0.0
29/03:30pm 18.6 15.6 9.4 55 4.8 SSW 15 20 8 11 1015.2 1015.2 0.0
29/03:00pm 18.5 15.5 9.3 55 4.8 SW 15 20 8 11 1015.6 1015.6 0.0
29/02:30pm 18.6 15.8 8.6 52 5.2 WSW 13 24 7 13 1016.2 1016.2 0.0
29/02:00pm 17.6 14.5 9.0 57 4.5 SW 15 20 8 11 1016.7 1016.7 0.0
29/01:30pm 17.0 13.2 8.9 59 4.2 SW 19 26 10 14 1017.1 1017.1 0.0
29/01:00pm 17.2 13.8 9.1 59 4.2 SW 17 24 9 13 1017.4 1017.4 0.0

Latest Capital City Observations: Canberra | Sydney | Melbourne | Brisbane | Adelaide | Perth | Hobart | Darwin

Other Formats:

Comma delimited format used in spreadsheet applications
http://www.bom.gov.au/fwo/IDV60901/IDV60901.94870.axf

JavaScript Object Notation format (JSON) in row-major order
http://www.bom.gov.au/fwo/IDV60901/IDV60901.94870.json